Date,TemperatureHighF,TemperatureAvgF,TemperatureLowF,DewpointHighF,DewpointAvgF,DewpointLowF,HumidityHigh,HumidityAvg,HumidityLow,PressureMaxIn,PressureMinIn,WindSpeedMaxMPH,WindSpeedAvgMPH,GustSpeedMaxMPH,PrecipitationSumIn
2013-1-1,75.8,64.9,54.2,62.1,58.3,52.3,95,80,61,30.18,30.00,15,0,15,0.00
2013-1-2,74.2,66.9,62.7,69.4,64.4,60.6,96,92,84,30.03,29.96,14,0,14,0.01
2013-1-3,75.8,65.0,59.3,69.1,62.9,57.6,97,93,73,30.12,29.99,12,0,12,0.23
2013-1-4,61.6,58.4,55.3,59.9,56.8,53.9,98,94,90,30.24,30.11,9,0,10,0.06
2013-1-5,74.4,63.2,56.4,62.8,58.1,53.0,94,84,65,30.25,30.14,10,0,10,0.00
2013-1-6,78.6,67.1,61.0,70.3,63.5,58.9,95,89,75,30.16,30.04,10,0,10,0.01
2013-1-7,68.5,63.3,60.0,62.9,59.6,55.5,94,88,73,30.17,30.06,12,0,14,0.01
2013-1-8,84.5,71.4,61.7,71.2,65.2,59.3,93,82,59,30.18,30.07,9,0,12,0.00
2013-1-9,86.5,75.4,68.5,72.7,68.8,66.1,93,81,58,30.24,30.12,13,0,13,0.01
2013-1-10,84.4,74.5,68.1,70.7,67.0,64.1,93,79,55,30.25,30.16,17,0,17,0.00
2013-1-11,81.4,71.9,65.2,68.6,65.2,62.5,92,80,61,30.22,30.09,16,0,16,0.00
2013-1-12,83.3,71.9,65.5,70.9,66.6,62.7,92,84,64,30.14,30.04,13,0,14,0.01
2013-1-13,79.3,71.4,66.7,69.0,65.8,63.4,90,83,69,30.13,30.01,11,0,11,0.00
2013-1-14,80.3,70.2,63.5,66.4,62.9,60.0,91,79,56,30.14,30.07,13,0,13,0.00
2013-1-15,79.2,69.1,61.7,68.3,63.9,59.0,92,84,67,30.11,30.01,14,0,14,0.00
2013-1-16,78.8,69.7,63.6,68.4,64.6,60.9,92,85,65,30.07,29.97,14,0,14,0.02
2013-1-17,70.3,63.5,54.3,66.9,58.4,46.2,91,84,68,30.13,29.95,21,2,21,0.11
2013-1-18,64.0,55.2,43.1,55.3,47.5,37.0,81,75,63,30.29,30.12,20,2,20,0.00
2013-1-19,76.2,65.5,54.2,61.4,56.4,48.4,85,73,59,30.24,30.09,12,1,13,0.00
2013-1-20,77.6,65.9,60.0,64.2,59.6,55.9,89,80,62,30.14,30.01,7,0,10,0.00
2013-1-21,75.5,64.9,60.2,64.2,58.0,53.0,88,78,67,30.07,29.99,10,0,12,0.00
2013-1-22,68.8,59.8,49.6,53.4,42.3,29.2,77,55,26,30.25,30.04,13,1,14,0.00
2013-1-23,68.1,55.8,46.7,47.5,41.3,35.6,83,60,34,30.34,30.24,14,1,14,0.00
2013-1-24,70.7,57.4,47.3,55.7,49.3,42.7,91,76,45,30.31,30.22,12,1,14,0.00
2013-1-25,74.0,59.8,52.0,60.4,53.4,49.5,93,81,47,30.28,30.16,2,0,2,0.02
2013-1-26,73.0,61.7,51.7,60.8,56.0,49.2,92,83,63,30.25,30.15,12,0,13,0.01
2013-1-27,80.2,65.3,55.1,62.6,56.4,52.5,91,75,44,30.27,30.17,9,0,9,0.01
2013-1-28,80.3,70.0,62.4,66.2,62.4,58.2,89,78,56,30.27,30.17,13,0,14,0.00
2013-1-29,80.5,70.6,63.0,69.0,64.9,59.7,89,83,64,30.19,30.04,11,0,11,0.00
2013-1-30,77.0,71.4,67.6,68.8,66.2,63.6,89,84,74,30.04,29.87,22,3,24,0.00
2013-1-31,69.0,57.7,52.2,65.5,47.1,36.8,90,69,49,30.21,29.88,19,2,22,0.17
2013-2-1,65.9,54.9,45.0,46.2,40.1,33.8,80,59,32,30.34,30.19,13,0,14,0.00
2013-2-2,71.0,57.4,47.3,49.7,44.6,35.9,81,64,28,30.28,30.13,10,0,11,0.00
2013-2-3,68.5,56.5,46.1,57.2,49.6,42.6,92,78,62,30.17,30.07,11,0,12,0.00
2013-2-4,69.5,55.6,47.0,54.2,45.4,35.6,91,72,29,30.11,30.02,9,0,11,0.01
2013-2-5,74.5,60.6,48.3,58.5,51.7,44.0,87,74,47,30.06,29.97,10,0,10,0.00
2013-2-6,77.0,67.4,60.1,65.1,60.1,55.6,88,78,56,30.07,29.98,12,0,14,0.00
2013-2-7,77.0,68.6,63.2,66.8,63.6,59.9,90,84,70,30.02,29.77,26,2,30,0.15
2013-2-8,72.7,65.6,59.2,64.9,61.1,55.8,90,85,72,30.05,29.87,12,1,12,0.01
2013-2-9,67.0,57.7,55.3,57.5,53.9,51.8,90,87,70,30.16,30.04,9,0,11,0.00
2013-2-10,81.4,69.4,62.0,64.5,61.0,56.5,86,75,53,30.20,30.10,3,1,18,0.00
2013-2-11,77.8,69.9,64.8,67.6,64.2,60.8,89,82,70,30.16,30.05,3,0,19,0.00
2013-2-12,77.1,70.5,66.9,70.8,66.3,63.6,89,87,81,30.06,29.92,3,0,18,0.01
2013-2-13,74.6,68.6,59.2,69.4,64.1,55.0,87,86,84,29.96,29.82,2,0,23,0.33
2013-2-14,62.8,60.6,58.8,58.2,56.1,54.3,86,85,84,30.02,29.90,0,0,10,0.37
2013-2-15,67.6,59.7,55.7,57.0,53.0,51.0,85,79,63,30.06,29.94,7,0,11,0.01
2013-2-16,67.1,57.7,49.9,54.2,47.9,37.2,86,71,51,30.11,29.92,22,3,24,0.00
2013-2-17,54.1,47.0,39.3,39.1,30.2,20.3,79,53,40,30.32,30.11,21,2,21,0.00
2013-2-18,69.7,52.9,38.6,50.8,40.4,28.4,84,65,34,30.33,30.17,14,0,15,0.00
2013-2-19,74.0,63.9,54.4,62.9,56.6,49.0,85,77,62,30.19,30.05,16,1,16,0.00
2013-2-20,76.2,65.1,59.5,66.1,59.1,54.3,85,81,70,30.09,29.99,9,0,10,0.01
2013-2-21,79.8,68.1,59.3,68.4,61.5,54.2,85,80,67,30.07,29.96,12,0,12,0.00
2013-2-22,80.3,70.8,63.7,71.2,64.9,58.8,84,82,72,30.03,29.96,16,1,16,0.00
2013-2-23,74.2,70.4,67.4,68.0,64.1,60.7,82,81,79,29.97,29.87,12,0,14,0.02
2013-2-24,74.4,69.5,67.3,67.4,62.2,60.2,79,78,76,29.94,29.84,11,0,11,0.00
2013-2-25,79.3,72.6,67.4,71.5,65.0,59.6,79,77,75,29.87,29.74,15,1,16,0.00
2013-2-26,73.7,70.6,66.7,66.8,63.7,59.7,81,79,77,29.86,29.66,21,1,23,0.38
2013-2-27,69.8,64.7,59.8,61.0,57.2,53.3,82,77,65,29.96,29.84,12,0,13,0.00
2013-2-28,71.3,64.0,59.1,58.1,54.6,48.9,83,72,60,29.98,29.89,10,0,11,0.00
2013-3-1,63.2,58.2,53.7,50.1,46.2,39.3,73,65,53,30.01,29.89,12,1,15,0.00
2013-3-2,59.0,54.6,49.0,45.4,42.4,39.2,83,64,56,30.06,29.95,18,1,18,0.02
2013-3-3,54.5,49.2,43.9,41.7,37.9,31.9,74,65,59,30.14,29.97,20,1,20,0.00
2013-3-4,60.4,51.8,41.3,43.4,39.4,33.8,85,64,45,30.21,30.11,10,0,11,0.00
2013-3-5,71.2,58.7,42.8,60.0,52.3,38.9,86,80,67,30.15,30.01,12,0,12,0.00
2013-3-6,65.7,59.1,53.8,60.7,48.1,41.6,84,68,51,30.12,29.94,21,3,22,0.02
2013-3-7,60.7,52.4,44.7,46.2,40.4,34.2,85,65,42,30.21,30.10,12,0,14,0.00
2013-3-8,68.7,56.0,44.5,50.2,45.4,40.6,87,70,40,30.20,30.11,11,0,12,0.01
2013-3-9,54.8,54.7,54.5,49.8,49.7,49.3,84,83,82,30.16,30.15,0,0,0,0.00
2013-3-10,79.3,66.4,58.7,59.1,56.0,52.4,84,70,45,30.12,30.01,4,0,20,0.00
2013-3-11,74.9,69.7,61.5,64.1,61.5,56.2,83,75,68,30.06,29.85,18,2,18,0.00
2013-3-12,68.3,63.6,58.7,63.3,58.1,52.1,86,82,76,30.03,29.82,16,1,22,0.25
2013-3-13,67.8,61.7,58.0,53.2,47.7,40.6,80,61,39,30.17,30.01,17,2,17,0.00
2013-3-14,60.7,57.3,51.2,52.8,40.7,30.1,78,55,34,30.25,30.14,20,2,20,0.00
2013-3-15,70.8,56.5,43.6,47.5,42.4,32.6,88,63,28,30.27,30.14,6,0,7,0.00
2013-3-16,71.7,59.4,47.7,60.8,51.6,44.3,88,77,43,30.17,30.06,10,0,10,0.01
2013-3-17,75.8,63.6,53.3,62.5,56.8,49.5,87,79,59,30.10,29.97,13,1,13,0.01
2013-3-18,72.4,67.0,61.9,66.4,61.5,56.6,84,82,77,30.00,29.84,21,1,21,0.00
2013-3-19,79.1,68.8,62.1,67.6,62.1,57.2,84,80,67,29.99,29.86,11,0,11,0.00
2013-3-20,70.3,65.4,58.4,64.0,59.6,53.2,83,82,78,29.94,29.78,17,0,17,0.20
2013-3-21,65.6,58.1,47.9,54.0,44.9,33.0,83,64,31,29.98,29.85,15,1,15,0.01
2013-3-22,74.7,61.4,47.2,63.9,52.1,42.6,85,73,42,29.96,29.86,15,0,16,0.11
2013-3-23,74.5,69.5,65.6,67.5,62.7,59.5,81,79,76,29.93,29.77,13,1,14,0.05
2013-3-24,75.3,70.9,68.1,67.6,62.7,60.2,77,75,74,29.79,29.62,13,1,15,0.01
2013-3-25,68.1,61.9,57.1,60.3,50.3,41.1,79,66,46,30.03,29.72,24,3,24,0.00
2013-3-26,59.4,54.9,50.1,47.2,40.2,36.0,68,58,48,30.23,30.02,20,3,22,0.00
2013-3-27,56.4,49.8,42.7,42.9,37.5,31.3,82,63,46,30.32,30.19,15,1,17,0.00
2013-3-28,68.2,54.6,42.8,44.7,39.6,33.4,83,61,30,30.28,30.19,13,1,13,0.00
2013-3-29,76.5,58.9,47.8,51.6,44.2,36.4,86,64,24,30.30,30.19,3,0,5,0.00
2013-3-30,72.3,62.1,52.0,62.4,53.9,46.7,82,75,57,30.22,30.12,4,0,9,0.01
2013-3-31,76.1,66.1,56.2,62.9,57.7,50.8,83,75,61,30.13,29.98,2,1,17,0.00
2013-4-1,77.4,70.4,65.4,69.8,63.6,58.7,80,79,77,30.01,29.94,1,0,11,0.00
2013-4-2,77.6,69.6,61.8,66.4,61.2,54.9,80,75,65,30.07,29.97,7,0,7,0.01
2013-4-3,80.5,70.4,62.4,70.1,62.7,55.5,79,77,67,30.05,29.91,16,1,19,0.07
2013-4-4,73.7,69.5,66.3,65.7,61.7,58.2,79,76,75,30.01,29.82,16,1,18,0.11
2013-4-5,71.5,66.5,62.0,62.1,58.8,55.5,80,76,67,29.97,29.77,15,1,18,0.05
2013-4-6,73.3,63.6,55.8,60.1,55.2,50.1,81,75,55,30.08,29.96,14,0,17,0.03
2013-4-7,81.1,69.9,60.9,63.7,59.1,54.5,81,70,50,30.11,30.01,12,0,14,0.02
2013-4-8,86.3,73.5,65.9,67.4,61.8,57.6,80,68,40,30.09,30.00,13,0,14,0.00
2013-4-9,85.7,73.6,64.7,68.6,64.0,58.6,81,73,51,30.11,30.02,16,0,16,0.00
2013-4-10,87.2,75.8,65.7,69.6,65.2,59.7,81,71,51,30.07,29.93,13,0,13,0.00
2013-4-11,85.0,76.9,71.9,73.9,69.3,65.4,81,77,69,29.94,29.77,20,1,20,0.00
2013-4-12,76.1,74.6,71.2,69.2,67.5,64.3,80,79,77,29.89,29.75,23,1,23,0.00
2013-4-13,83.1,74.1,67.7,71.3,65.8,60.2,79,75,64,29.95,29.85,9,0,11,0.00
2013-4-14,81.8,74.7,68.5,73.9,67.4,61.7,80,78,73,29.97,29.83,22,1,24,0.00
2013-4-15,84.9,76.2,68.2,72.0,66.7,61.9,81,73,57,30.04,29.88,10,0,10,0.00
2013-4-16,93.5,79.3,68.2,74.1,68.8,62.5,82,71,47,30.09,29.99,14,0,15,0.00
2013-4-17,89.3,78.8,69.9,72.3,66.6,61.3,83,68,41,30.10,29.97,18,0,18,0.00
2013-4-18,87.5,78.0,69.9,72.9,69.0,64.5,83,74,59,30.00,29.91,14,0,15,0.00
2013-4-19,85.5,78.5,73.5,75.8,71.9,68.0,84,80,71,29.98,29.90,19,1,21,0.00
2013-4-20,76.2,70.8,67.5,70.7,64.1,61.7,84,80,70,30.05,29.94,15,0,17,0.02
2013-4-21,83.2,75.9,69.2,70.6,67.6,64.2,84,76,63,30.09,29.99,11,0,11,0.06
2013-4-22,82.2,72.5,67.4,70.9,65.6,62.1,84,79,66,30.04,29.94,13,0,13,0.12
2013-4-23,85.8,73.3,66.4,69.3,64.5,61.1,83,74,51,30.07,29.98,12,0,13,0.00
2013-4-24,83.0,73.1,64.3,67.6,63.9,59.4,84,74,55,30.10,30.03,12,0,12,0.00
2013-4-25,82.5,73.8,64.5,71.3,65.9,59.9,85,77,63,30.18,30.07,11,0,12,0.00
2013-4-26,82.8,74.9,65.9,71.1,66.7,60.9,84,76,62,30.21,30.11,13,0,13,0.00
2013-4-27,85.1,76.8,69.9,70.8,67.4,63.5,85,73,51,30.18,30.04,11,0,13,0.00
2013-4-28,85.5,76.6,69.2,70.7,66.7,63.5,82,72,51,30.08,29.93,13,0,16,0.00
2013-4-29,82.4,76.2,70.4,72.3,68.4,62.6,86,77,68,29.98,29.87,17,0,17,0.01
2013-4-30,87.4,77.6,69.5,73.1,69.5,65.4,87,77,55,29.96,29.87,9,0,11,0.05
2013-5-1,74.6,72.5,68.3,69.7,67.9,64.2,87,86,83,29.97,29.86,8,0,10,0.40
2013-5-2,72.0,71.6,71.1,66.9,66.5,65.7,84,84,83,29.81,29.79,3,0,3,0.15
2013-5-3,80.5,73.9,68.5,71.5,67.2,63.5,84,80,70,29.79,29.69,12,0,14,0.08
2013-5-4,78.8,71.9,65.2,70.0,65.5,59.9,84,80,73,29.79,29.65,16,1,17,0.04
2013-5-5,74.7,69.4,64.0,62.9,57.5,51.9,83,67,50,29.91,29.76,19,1,21,0.03
2013-5-6,72.6,69.1,63.5,63.8,58.8,55.9,78,70,58,29.99,29.87,13,0,13,0.01
2013-5-7,64.5,64.4,64.3,57.3,57.1,57.0,78,77,77,29.98,29.97,0,0,0,0.00
2013-5-8,77.7,70.2,61.6,65.7,61.6,56.7,85,75,62,30.10,30.00,1,0,11,0.01
2013-5-9,81.3,71.5,62.3,68.9,63.8,58.1,86,77,63,30.12,30.05,9,0,9,0.00
2013-5-10,86.4,75.1,64.3,72.0,66.4,60.0,86,76,53,30.11,29.96,12,0,13,0.01
2013-5-11,85.0,77.3,72.4,76.7,71.2,66.9,84,82,75,30.02,29.96,12,0,12,0.00
2013-5-12,84.0,76.5,70.5,74.4,69.3,65.4,84,79,69,30.02,29.90,10,0,11,0.00
2013-5-13,82.3,74.0,68.1,69.3,60.8,52.5,85,65,43,30.11,29.97,16,1,21,0.00
2013-5-14,83.1,72.0,59.2,60.7,50.6,41.1,73,49,25,30.19,30.09,14,1,16,0.00
2013-5-15,86.8,73.9,62.9,65.1,60.7,55.3,85,65,36,30.18,30.03,11,0,13,0.00
2013-5-16,83.5,75.2,67.4,68.2,65.2,61.8,84,72,54,30.10,29.97,3,0,3,0.00
2013-5-17,83.8,76.4,69.5,71.9,67.5,63.9,86,75,59,30.06,29.98,11,0,11,0.00
2013-5-18,85.5,77.7,70.8,75.3,70.0,66.3,88,78,55,30.07,29.98,11,0,11,0.00
2013-5-19,85.9,77.5,68.9,72.4,68.6,65.2,89,75,58,30.06,29.95,9,0,10,0.00
2013-5-20,87.8,78.7,71.7,75.9,70.3,64.3,88,76,50,30.03,29.93,13,0,13,0.01
2013-5-21,85.8,77.3,70.4,74.2,69.7,66.8,89,78,59,29.99,29.88,11,0,13,0.01
2013-5-22,84.5,77.5,71.0,73.9,70.7,66.9,88,80,69,29.94,29.85,12,0,12,0.00
2013-5-23,85.0,78.3,71.1,74.3,71.5,67.4,89,80,68,29.98,29.88,12,0,13,0.00
2013-5-24,87.8,80.2,73.1,77.5,71.7,67.5,88,76,53,30.04,29.94,11,0,14,0.00
2013-5-25,94.4,83.1,72.6,71.9,65.9,60.2,82,59,33,30.13,30.01,13,1,14,0.00
2013-5-26,90.0,79.2,69.4,64.6,59.2,49.2,80,54,27,30.17,30.06,13,0,13,0.00
2013-5-27,92.0,79.9,68.4,67.8,64.2,61.5,85,61,38,30.14,30.00,15,0,15,0.00
2013-5-28,93.8,79.8,72.5,74.0,70.5,67.7,87,75,47,30.10,29.98,22,1,22,0.00
2013-5-29,89.5,80.0,73.6,73.6,71.0,67.1,89,75,52,30.05,29.97,22,1,22,0.00
2013-5-30,90.3,81.4,75.3,73.7,71.6,69.3,88,73,55,30.04,29.95,19,2,21,0.00
2013-5-31,90.2,79.8,74.6,75.6,71.7,68.8,88,77,58,30.04,29.95,14,0,15,0.04
2013-6-1,89.5,79.3,74.4,77.4,73.3,70.7,93,82,63,30.01,29.91,13,0,13,0.29
2013-6-2,88.1,79.7,73.1,78.4,74.4,71.0,94,84,70,29.95,29.86,8,0,9,0.19
2013-6-3,86.5,80.3,76.9,77.8,74.6,72.6,88,83,75,29.96,29.86,13,0,13,0.03
2013-6-4,87.0,81.0,76.9,77.1,73.9,71.5,88,79,67,29.97,29.89,17,0,17,0.02
2013-6-5,85.8,78.3,73.6,74.8,72.7,69.9,91,83,66,29.97,29.84,14,0,16,0.02
2013-6-6,81.7,76.7,73.6,76.0,72.7,70.8,92,88,79,29.85,29.62,25,2,28,1.76
2013-6-7,86.3,80.4,75.5,77.7,74.1,71.1,88,81,72,29.93,29.75,11,0,12,0.00
2013-6-8,86.7,79.8,72.2,78.6,74.4,69.4,91,84,74,30.06,29.92,12,0,12,1.40
2013-6-9,90.0,80.2,72.2,78.3,73.3,69.4,91,80,60,30.06,29.97,13,0,13,0.01
2013-6-10,88.8,82.0,76.8,78.7,75.1,72.5,87,80,65,30.05,29.98,11,0,11,0.00
2013-6-11,90.5,82.1,75.8,79.3,75.2,71.7,88,80,66,30.06,29.98,9,0,10,0.01
2013-6-12,90.0,82.0,74.0,79.1,74.5,70.2,89,79,63,30.05,29.97,11,0,11,0.00
2013-6-13,88.5,81.6,75.3,77.0,74.4,71.7,89,79,64,30.01,29.88,9,0,10,0.00
2013-6-14,87.7,82.2,79.0,77.5,74.8,72.9,84,78,69,29.93,29.85,12,0,12,0.00
2013-6-15,88.1,82.9,79.6,79.0,76.3,74.0,86,81,73,30.02,29.88,9,0,10,0.00
2013-6-16,89.3,83.6,78.6,79.9,76.7,74.5,88,80,72,30.04,29.97,9,0,10,0.00
2013-6-17,90.8,84.0,77.3,79.1,76.2,73.5,89,78,63,30.03,29.95,10,0,10,0.00
2013-6-18,90.1,83.3,76.2,79.5,76.0,72.7,90,79,68,30.02,29.93,8,0,9,0.00
2013-6-19,90.2,84.0,78.3,79.3,76.5,74.2,90,79,64,30.00,29.94,9,0,11,0.02
2013-6-20,90.3,82.0,76.6,78.7,74.5,70.8,91,79,59,30.07,29.97,9,0,10,0.14
2013-6-21,89.4,78.7,75.1,77.9,72.8,70.2,89,82,69,30.07,29.99,9,0,9,0.05
2013-6-22,91.1,81.5,73.9,75.8,72.6,69.8,91,76,55,30.08,30.00,14,0,14,0.00
2013-6-23,91.2,81.2,71.7,77.3,73.8,67.4,91,79,58,30.09,30.01,14,0,16,1.12
2013-6-24,93.1,82.9,75.8,78.3,74.3,71.8,91,77,51,30.14,30.02,11,0,11,0.05
2013-6-25,91.2,82.4,74.9,77.4,74.3,66.7,91,77,57,30.11,29.98,14,0,14,0.22
2013-6-26,90.5,81.0,75.2,79.4,74.9,71.8,92,82,65,30.04,29.96,11,0,12,0.05
2013-6-27,89.9,82.7,74.4,78.7,75.2,70.6,90,79,66,30.01,29.91,6,0,13,0.00
2013-6-28,90.1,84.3,80.0,79.2,76.3,74.2,83,77,69,29.94,29.81,11,0,12,0.00
2013-6-29,86.0,81.3,76.5,78.2,75.0,70.9,88,81,75,29.85,29.76,11,0,13,0.13
2013-6-30,89.3,83.4,76.4,80.6,76.4,72.6,90,80,71,29.85,29.76,16,0,17,0.65
2013-7-1,80.5,76.1,70.8,76.2,72.9,68.1,93,90,85,29.94,29.79,18,0,19,3.53
2013-7-2,87.0,79.0,73.3,78.0,73.5,70.6,92,84,71,30.04,29.90,16,0,16,2.53
2013-7-3,90.5,78.1,72.5,79.2,73.1,69.0,91,85,66,30.07,29.99,17,0,22,1.04
2013-7-4,89.3,78.2,73.3,78.4,73.0,69.9,90,84,69,30.11,30.00,22,0,22,0.44
2013-7-5,89.3,77.3,72.4,77.4,72.4,68.7,89,85,65,30.09,30.02,20,0,20,1.14
2013-7-6,92.7,81.7,74.0,78.2,74.3,70.2,88,79,57,30.07,29.98,15,1,16,0.01
2013-7-7,95.0,82.6,76.0,76.8,74.0,71.4,88,77,52,30.09,29.98,15,0,15,0.27
2013-7-8,92.3,81.8,75.5,78.4,74.4,71.7,88,79,58,30.12,30.03,7,0,12,0.01
2013-7-9,94.5,81.9,74.1,77.8,73.7,69.3,88,77,47,30.12,30.00,15,0,15,0.52
2013-7-10,88.8,80.2,73.3,77.2,73.0,69.6,89,79,65,30.05,29.92,10,0,10,0.28
2013-7-11,87.8,79.9,74.3,78.0,74.0,70.5,88,82,70,29.99,29.89,9,0,9,0.36
2013-7-12,89.0,82.8,77.1,78.0,74.8,71.8,86,77,65,29.92,29.85,7,0,7,0.17
2013-7-13,87.1,79.6,73.4,77.6,73.2,69.6,89,81,71,29.94,29.86,11,0,11,0.93
2013-7-14,90.5,80.4,74.6,78.5,73.7,70.5,87,80,65,30.03,29.91,14,0,16,0.00
2013-7-15,92.8,81.4,75.0,76.0,72.7,70.2,86,76,54,30.07,29.97,11,0,12,0.00
2013-7-16,92.0,80.1,75.7,75.1,72.4,70.6,87,78,53,30.11,30.02,24,0,24,0.12
2013-7-17,92.5,79.8,74.0,76.4,72.8,70.6,89,80,54,30.11,30.01,16,0,16,0.64
2013-7-18,88.1,77.6,72.7,76.1,71.8,69.3,89,83,64,30.07,30.00,16,0,16,0.79
2013-7-19,86.0,77.0,73.2,77.7,72.0,69.4,88,85,73,30.08,30.00,12,0,12,0.73
2013-7-20,90.0,79.9,73.5,79.3,73.3,69.1,86,81,68,30.07,29.97,15,0,19,0.00
2013-7-21,89.9,82.6,75.3,80.6,75.9,70.4,85,80,72,30.08,30.00,9,0,9,0.00
2013-7-22,89.7,84.2,79.5,79.9,76.8,74.2,84,79,70,30.10,30.02,10,0,11,0.00
2013-7-23,89.3,83.6,79.8,78.4,75.8,73.7,83,78,68,30.05,29.93,13,0,13,0.00
2013-7-24,88.2,83.7,81.0,78.4,76.2,75.0,85,78,71,29.97,29.87,14,0,15,0.00
2013-7-25,88.3,83.7,76.9,78.4,76.6,72.5,87,79,70,29.97,29.84,12,0,15,0.66
2013-7-26,89.3,81.8,76.0,79.9,75.9,72.2,89,83,71,29.98,29.91,12,0,13,0.29
2013-7-27,90.5,83.5,78.0,77.5,75.3,73.4,86,77,62,29.97,29.89,9,0,11,0.00
2013-7-28,89.3,82.4,76.8,78.9,75.1,72.2,87,79,68,30.02,29.90,9,0,9,0.00
2013-7-29,91.3,83.1,74.3,79.0,74.7,70.2,87,76,62,30.10,29.98,7,0,9,0.00
2013-7-30,92.5,84.1,76.8,79.9,75.7,72.1,89,76,62,30.13,30.02,6,0,7,0.70
2013-7-31,92.3,83.1,75.8,79.9,75.3,71.2,89,78,60,30.09,29.97,7,0,9,0.01
2013-8-1,90.2,82.9,78.0,78.5,75.3,72.1,85,78,65,30.02,29.91,8,0,9,0.00
2013-8-2,90.7,83.1,75.4,79.2,75.4,71.3,88,78,65,30.00,29.90,7,0,7,0.00
2013-8-3,91.5,84.4,78.0,79.5,76.2,73.1,86,77,65,30.06,29.96,7,0,12,0.00
2013-8-4,90.3,85.4,81.0,80.1,77.6,75.7,84,78,69,30.05,29.96,12,0,12,0.00
2013-8-5,91.3,86.1,82.4,80.7,78.0,75.7,83,77,68,29.99,29.90,10,0,12,0.00
2013-8-6,91.5,83.1,78.2,81.4,77.2,73.9,89,82,69,29.95,29.85,8,0,8,0.13
2013-8-7,93.5,82.0,74.7,79.3,75.7,71.0,90,82,59,29.93,29.85,11,0,11,0.09
2013-8-8,93.6,83.0,72.9,80.9,75.8,69.8,91,80,58,30.00,29.88,13,0,16,2.26
2013-8-9,91.2,84.3,75.8,78.6,75.7,72.5,91,76,59,30.01,29.92,11,0,11,0.48
2013-8-10,92.9,85.9,73.5,79.4,76.9,70.1,90,75,61,30.08,29.99,10,0,15,0.02
2013-8-11,93.0,85.0,77.5,80.1,76.3,73.0,86,76,63,30.11,30.01,11,0,11,0.00
2013-8-12,92.8,84.7,77.4,80.9,77.2,73.2,87,79,65,30.09,29.97,10,0,11,0.00
2013-8-13,92.1,84.9,78.0,79.4,76.6,73.5,87,77,61,30.01,29.90,11,0,11,0.00
2013-8-14,91.5,84.6,77.7,79.9,77.0,74.2,89,79,66,29.96,29.89,9,0,11,0.07
2013-8-15,91.5,83.6,78.2,79.4,76.2,73.5,87,79,62,30.00,29.91,12,0,13,0.00
2013-8-16,89.7,84.6,80.8,79.1,76.2,72.3,86,76,65,30.00,29.92,11,0,11,0.15
2013-8-17,92.8,83.0,75.4,80.9,75.5,72.3,91,79,59,30.04,29.94,14,0,14,0.21
2013-8-18,93.5,81.5,76.0,79.6,75.4,72.5,90,83,58,30.06,29.97,12,0,13,1.07
2013-8-19,93.5,81.9,74.3,80.1,75.3,70.7,90,81,62,30.03,29.92,12,0,12,1.74
2013-8-20,93.7,80.9,74.4,79.1,74.1,71.3,90,81,56,30.04,29.95,11,0,11,0.01
2013-8-21,95.5,83.9,77.8,80.8,75.8,72.7,87,77,54,30.06,29.92,15,0,15,0.30
2013-8-22,92.8,80.1,73.8,79.8,74.3,70.0,88,83,61,30.04,29.94,0,0,11,0.41
2013-8-23,92.2,81.8,76.2,79.0,74.8,72.1,88,80,61,29.98,29.91,10,0,10,0.01
2013-8-24,92.0,82.2,76.1,79.6,74.6,71.6,87,78,62,30.08,29.95,14,0,14,0.00
2013-8-25,90.3,80.7,76.6,77.0,73.9,71.8,86,80,62,30.11,30.02,14,0,14,0.01
2013-8-26,93.0,80.7,75.0,79.1,73.5,70.8,89,80,54,30.10,29.96,11,0,11,0.74
2013-8-27,94.8,80.6,73.7,77.3,73.0,69.6,89,79,46,30.01,29.93,13,0,13,1.02
2013-8-28,92.0,80.5,72.2,76.5,72.7,68.8,90,78,52,30.02,29.93,10,0,10,0.06
2013-8-29,90.0,82.3,73.1,77.2,73.9,69.3,89,76,62,30.00,29.90,11,0,12,0.00
2013-8-30,91.7,82.4,76.5,79.6,75.1,72.0,86,79,58,29.96,29.85,10,0,10,0.00
2013-8-31,89.3,80.5,73.9,77.9,74.0,69.8,88,81,64,29.95,29.84,15,0,15,0.24
2013-9-1,90.3,83.4,76.9,78.4,74.5,71.7,85,75,62,29.94,29.87,8,0,10,0.00
2013-9-2,90.0,83.6,78.5,79.1,75.5,73.4,87,77,63,29.98,29.89,10,0,10,0.01
2013-9-3,90.4,83.8,77.7,78.0,75.2,72.8,86,76,63,29.99,29.89,7,0,7,0.00
2013-9-4,95.0,82.6,75.8,78.6,74.7,71.1,89,78,51,30.04,29.92,18,0,18,0.09
2013-9-5,93.3,82.3,73.0,80.4,75.0,68.1,89,79,61,30.05,29.95,11,0,11,0.14
2013-9-6,92.0,81.2,75.5,82.2,75.3,70.8,89,83,65,30.02,29.90,11,0,13,0.16
2013-9-7,91.0,80.4,73.0,76.3,72.2,68.8,89,77,55,29.98,29.88,13,0,14,0.24
2013-9-8,92.3,80.9,72.1,76.2,72.6,68.9,90,77,54,29.93,29.83,11,0,11,0.01
2013-9-9,95.0,84.2,75.1,76.6,72.8,69.2,88,70,45,29.98,29.88,10,0,11,0.00
2013-9-10,94.9,84.6,76.3,76.4,72.4,66.3,87,69,44,30.04,29.94,14,0,15,0.00
2013-9-11,95.5,84.2,76.2,76.1,72.1,67.2,88,69,41,30.03,29.93,14,0,14,0.02
2013-9-12,90.5,81.8,75.9,77.0,73.9,71.1,89,77,59,29.98,29.84,12,0,12,0.00
2013-9-13,90.0,80.7,73.4,77.9,73.9,70.3,90,80,66,29.87,29.78,9,0,9,0.00
2013-9-14,90.3,82.3,75.4,78.0,74.7,71.7,90,78,64,29.94,29.80,7,0,7,0.00
2013-9-15,96.3,82.0,72.5,78.2,73.8,68.3,88,77,52,30.03,29.91,22,1,27,0.10
2013-9-16,96.0,80.4,74.3,76.5,73.3,71.3,91,81,48,30.03,29.92,25,0,25,0.03
2013-9-17,95.0,81.3,73.4,76.5,73.0,70.3,91,77,51,30.01,29.89,13,0,16,0.01
2013-9-18,94.3,81.5,76.2,76.8,73.6,70.6,89,78,54,29.99,29.91,11,0,13,0.01
2013-9-19,93.8,80.3,74.3,76.6,73.4,71.5,92,81,52,30.01,29.92,14,0,14,0.63
2013-9-20,92.3,80.8,73.4,74.6,72.4,70.0,92,77,52,29.98,29.85,12,0,13,0.00
2013-9-21,88.3,80.9,73.2,75.8,71.7,68.4,86,74,61,29.90,29.74,12,0,12,0.00
2013-9-22,87.8,82.4,78.7,79.0,75.7,71.8,87,81,71,29.81,29.71,12,0,14,0.01
2013-9-23,81.5,78.6,76.1,77.6,75.3,73.1,92,89,86,29.90,29.78,11,0,13,1.11
2013-9-24,81.0,78.4,73.9,76.7,74.8,71.4,92,89,85,29.92,29.80,11,0,14,1.61
2013-9-25,81.2,76.4,70.3,77.0,72.8,67.6,92,88,84,29.90,29.75,13,0,14,2.15
2013-9-26,87.8,81.9,75.4,79.8,75.8,70.8,87,82,72,29.84,29.75,12,0,14,0.00
2013-9-27,75.9,73.4,71.3,70.7,69.0,67.5,88,86,84,29.84,29.83,4,0,5,0.00
2013-10-5,91.8,81.4,75.1,74.9,72.5,70.6,87,76,52,30.02,29.90,1,0,11,0.00
2013-10-6,88.4,80.4,73.3,75.8,73.2,70.5,92,80,60,29.95,29.83,1,0,11,0.00
2013-10-7,86.9,80.3,74.7,78.8,75.2,71.6,93,85,76,29.83,29.72,2,0,18,0.67
2013-10-8,85.7,80.8,76.3,77.3,74.5,71.1,88,81,74,29.92,29.77,1,0,14,0.00
2013-10-9,81.4,75.2,70.0,71.2,69.1,65.6,86,81,69,30.01,29.91,0,0,10,0.00
2013-10-10,85.9,74.5,65.7,70.9,67.2,63.0,91,79,58,30.02,29.93,0,0,11,0.00
2013-10-11,85.4,75.7,67.2,71.0,67.5,63.8,92,77,57,30.01,29.92,1,0,10,0.00
2013-10-12,85.5,76.2,67.3,68.8,64.3,61.8,90,68,47,30.01,29.93,13,0,13,0.67
2013-10-13,88.1,75.1,64.4,71.4,64.1,60.5,92,71,41,30.05,29.95,12,0,12,0.00
2013-10-14,85.8,75.4,67.9,70.9,67.2,64.0,91,76,56,30.01,29.90,12,0,12,0.00
2013-10-15,81.8,73.2,66.8,72.3,68.1,64.1,92,84,72,29.97,29.87,10,0,11,0.00
2013-10-16,82.7,74.1,67.4,73.4,68.4,65.3,94,83,61,29.94,29.87,1,0,3,0.00
2013-10-17,85.4,76.2,69.9,75.8,70.6,66.5,92,83,72,29.94,29.86,7,0,7,0.00
2013-10-18,73.4,72.3,71.2,70.6,69.4,68.3,92,91,88,29.90,29.86,0,0,0,0.01
2013-10-19,85.9,78.4,73.1,78.0,73.7,70.0,91,86,76,29.91,29.83,1,0,11,0.01
2013-10-20,86.7,78.8,74.5,76.8,73.0,70.0,92,83,67,29.92,29.83,6,0,6,0.01
2013-10-21,86.7,78.6,73.0,76.7,72.7,69.1,90,83,70,29.96,29.89,5,0,6,0.00
2013-10-22,86.3,76.8,71.4,77.2,72.0,68.4,91,85,73,29.91,29.79,11,0,11,0.49
2013-10-23,78.0,74.2,68.7,72.1,65.1,56.1,90,74,52,29.98,29.77,18,0,18,0.02
2013-10-24,74.7,67.5,60.5,60.0,51.4,45.5,81,57,46,30.14,29.97,10,0,13,0.00
2013-10-25,80.8,67.8,57.5,60.9,55.8,50.5,88,68,38,30.21,30.11,14,0,14,0.00
2013-10-26,80.0,68.5,60.5,61.0,57.9,54.5,85,70,43,30.17,30.06,5,0,9,0.00
2013-10-27,80.5,67.1,57.6,61.5,57.4,52.6,92,73,41,30.09,30.02,10,0,10,0.00
2013-10-28,84.0,69.8,60.6,64.3,58.5,53.1,88,69,37,30.16,30.05,11,0,11,0.00
2013-10-29,86.8,74.3,64.6,69.2,64.4,60.9,92,73,47,30.19,30.08,11,0,11,0.00
2013-10-30,87.8,76.2,67.8,70.4,66.6,64.4,90,73,50,30.19,30.04,10,0,11,0.00
2013-10-31,84.8,75.1,68.1,71.1,67.8,64.8,91,79,59,30.09,29.93,14,0,16,0.00
2013-11-1,83.8,77.1,72.0,76.1,72.8,69.2,92,87,77,29.96,29.84,11,0,13,0.00
2013-11-2,77.4,71.4,63.2,74.6,67.7,59.9,93,88,77,29.96,29.77,12,0,12,0.96
2013-11-3,77.6,66.3,59.5,60.0,53.4,44.6,93,66,32,30.09,29.94,11,0,11,0.00
2013-11-4,81.5,69.7,59.1,63.8,58.5,50.4,83,69,49,30.12,30.04,13,0,13,0.00
2013-11-5,84.9,74.4,65.2,70.3,66.3,61.9,90,77,59,30.11,30.00,18,1,18,0.00
2013-11-6,87.2,76.2,70.5,70.2,67.7,65.7,87,76,51,30.07,29.97,11,0,11,0.00
2013-11-7,80.0,72.8,68.5,71.0,67.5,65.7,92,84,69,30.03,29.93,11,0,11,0.00
2013-11-8,80.8,71.7,64.9,68.4,63.4,59.6,91,76,55,30.08,29.96,12,0,12,0.00
2013-11-9,84.8,73.9,64.9,68.8,64.2,59.6,83,72,57,30.11,30.03,13,0,14,0.00
2013-11-10,85.5,72.8,66.7,69.2,65.8,62.2,86,79,54,30.13,30.03,7,0,7,0.00
2013-11-11,83.9,72.8,66.1,69.4,66.0,62.5,90,80,57,30.12,30.02,9,0,12,0.00
2013-11-12,77.8,70.4,65.2,70.5,65.6,57.2,93,85,66,30.08,29.98,12,0,12,0.00
2013-11-13,69.3,61.9,54.4,58.1,51.3,47.7,80,69,60,30.26,30.04,21,1,23,0.00
2013-11-14,78.2,64.9,53.0,59.2,54.4,47.9,87,70,49,30.25,30.12,15,0,15,0.00
2013-11-15,72.8,68.2,63.9,65.6,62.2,58.1,88,81,73,30.14,30.01,10,0,10,0.05
2013-11-16,77.5,72.2,68.1,70.7,67.8,64.6,92,86,79,30.08,29.98,10,0,12,0.06
2013-11-17,82.5,74.2,69.4,73.0,68.3,64.2,91,82,69,30.04,29.96,10,0,10,0.01
2013-11-18,80.6,74.0,68.6,72.9,70.0,66.2,93,88,77,29.99,29.89,6,0,7,0.02
2013-11-19,82.3,73.8,67.4,72.4,68.8,61.3,94,85,71,29.93,29.83,7,0,10,0.00
2013-11-20,81.7,72.1,65.3,72.2,66.8,61.4,90,84,72,30.05,29.92,12,0,12,0.01
2013-11-21,86.5,76.3,71.5,73.0,69.9,68.3,90,81,62,30.13,30.03,12,0,15,0.00
2013-11-22,86.7,76.3,70.2,71.9,68.8,65.0,91,78,60,30.14,30.04,10,0,11,0.00
2013-11-23,83.4,72.1,65.2,69.3,65.9,62.5,92,82,59,30.08,29.98,9,0,9,0.00
2013-11-24,71.6,66.6,59.5,66.9,60.3,52.2,91,80,71,30.18,30.00,15,1,15,0.00
2013-11-25,76.7,68.3,59.5,63.4,58.6,52.3,82,72,59,30.18,30.00,17,1,18,0.00
2013-11-26,78.6,72.8,68.8,72.1,69.2,63.3,94,89,80,30.00,29.72,22,2,26,0.33
2013-11-27,72.2,63.7,48.5,70.4,56.8,40.6,94,79,69,30.17,29.71,21,2,29,0.02
2013-11-28,62.6,50.8,38.5,49.3,42.0,31.2,85,72,47,30.32,30.17,12,1,13,0.00
2013-11-29,73.1,60.9,51.6,57.6,53.2,47.8,89,77,55,30.32,30.22,13,0,13,0.00
2013-11-30,77.8,65.3,55.7,64.4,58.3,50.4,91,79,62,30.28,30.13,12,0,13,0.00
2013-12-1,74.6,63.0,59.2,65.8,59.9,57.5,94,90,74,30.16,29.95,7,0,9,0.00
2013-12-2,69.0,63.5,59.1,62.3,58.8,55.7,95,85,64,29.96,29.81,9,0,9,0.01
2013-12-3,77.0,67.8,58.8,67.1,62.9,56.5,93,85,70,29.94,29.85,10,0,10,0.00
2013-12-4,79.3,72.2,68.0,71.7,67.9,65.0,93,87,73,30.04,29.92,11,0,11,0.01
2013-12-5,80.7,71.4,66.1,70.0,66.3,63.5,92,84,68,30.12,30.03,11,0,13,0.00
2013-12-6,82.3,72.1,65.7,73.2,68.0,63.3,93,87,73,30.13,30.04,17,1,17,0.02
2013-12-7,80.9,71.4,67.2,70.8,67.4,64.8,93,88,71,30.19,30.11,10,0,10,0.00
2013-12-8,84.5,75.3,65.8,71.4,67.8,63.4,92,78,63,30.18,30.05,8,0,13,0.01
2013-12-9,80.9,72.9,67.6,72.6,68.4,64.6,91,86,75,30.13,30.04,2,0,13,0.00
2013-12-10,79.1,72.0,66.1,71.6,68.0,63.4,92,88,77,30.13,30.05,3,0,9,0.01
2013-12-11,82.0,70.5,64.5,68.1,64.4,59.0,89,82,61,30.20,30.11,9,0,10,0.00
2013-12-12,74.8,65.0,55.7,63.5,52.2,35.4,91,67,31,30.27,30.15,13,0,14,0.00
2013-12-13,77.0,62.2,50.8,60.0,50.9,39.6,84,68,45,30.25,30.06,9,0,14,0.00
2013-12-14,80.5,72.4,66.0,71.4,67.2,59.8,92,84,73,30.07,29.90,19,1,20,0.00
2013-12-15,73.0,67.3,59.3,71.1,62.8,53.8,94,86,74,30.10,29.85,16,0,16,0.17
2013-12-16,62.1,55.6,48.6,53.8,47.4,43.6,85,74,56,30.20,30.08,10,0,11,0.00
2013-12-17,72.2,56.4,45.7,51.6,46.4,39.2,89,71,34,30.23,30.12,9,0,9,0.00
2013-12-18,71.2,57.9,48.8,54.6,49.6,44.2,93,76,44,30.26,30.17,14,0,14,0.01
2013-12-19,77.8,61.6,48.5,59.8,52.1,44.8,92,73,46,30.23,30.12,10,0,10,0.00
2013-12-20,83.3,69.4,60.4,69.0,60.6,-99.9,88,77,61,30.15,30.04,14,-14,14,0.00
2013-12-21,83.5,74.4,68.5,72.1,68.2,-99.9,90,82,68,30.08,29.97,17,-2,18,0.00
2013-12-22,80.8,74.3,70.2,73.0,69.7,67.6,92,86,75,30.09,30.01,14,1,20,0.00
2013-12-23,80.4,74.0,70.3,74.3,70.4,67.6,93,89,80,30.13,30.05,16,1,17,0.00
2013-12-24,71.6,62.1,52.3,69.4,51.0,34.3,93,70,36,30.23,30.09,17,1,25,0.00
2013-12-25,76.8,61.6,48.0,59.9,49.9,36.5,75,66,54,30.22,30.08,12,0,14,0.00
2013-12-26,81.0,67.3,60.8,63.0,59.5,56.5,88,77,48,30.18,30.05,10,0,12,0.00
2013-12-27,71.1,65.7,61.3,66.2,61.3,56.8,90,86,80,30.21,30.10,10,0,11,0.04
2013-12-28,79.3,71.1,64.9,69.8,66.4,61.9,92,85,72,30.16,29.95,13,0,13,0.00
2013-12-29,73.8,69.7,63.9,70.7,66.7,61.2,93,90,86,29.99,29.85,17,1,21,0.61
2013-12-30,67.8,63.0,60.6,61.7,59.2,56.1,92,88,79,30.16,29.98,10,0,11,0.00
2013-12-31,69.6,64.0,60.3,56.3,53.1,50.9,85,68,53,30.26,30.12,7,0,13,0.00
2014-1-1,64.0,61.7,59.4,61.5,58.2,52.2,93,88,70,30.22,30.01,10,0,15,0.15
2014-1-2,73.2,66.8,60.6,70.2,64.5,55.4,94,93,82,30.01,29.81,11,0,18,0.54